Shell Knob, MO (65747)

01:24 AM CDT del 02 Settembre 2015 (GMT -0500)
Lampe / Baxter | | Change Station
CLOSE
Current Station
Stazione meteo personale
Location: Lampe, MO
Altitudine: 994 ft
Stazioni meteo nelle vicinanze

Alt. 994 ft 36.57 °N, 93.48 °W | Updated 3 seconds ago

Sereno
Sereno
70.3 °F
Sembra 70.3 °F
N
0.0
Vento Variabile Vento da ESE
Gusts 0.0 mph

Oggi
Massima -- | Minima -- °F
--% Possibilità di precip.
Ieri
Massima -- | Minima -- °F
Precip. -- in
6:46 AM 7:41 PM
Gobba a levante, 83% visible
Pressione 30.11 in
Visibilità 10.0 miglia
Nuvole Nubi sparse 4000 ft
Punto di rugiada 67 °F
Umidità 89%
Piovosità 0.00 in
Spessore del manto nevoso Non disponibile.
Raggi UV 0.0 fuori da 12
Polline 10.60 fuori da 12
Qualità dell'aria Non disponibile.
Flu Activity Non disponibile.
METAR KFWB 020555Z AUTO 00000KT 10SM SCT040 23/18 A3011 RMK AO2
Pressione 30.11 in
Visibilità 10.0 miglia
Nuvole Nubi sparse 4000 ft
Punto di rugiada 67 °F
Umidità 89%
Piovosità 0.00 in
Spessore del manto nevoso Non disponibile.
Raggi UV 0.0 fuori da 12
Polline 10.60 fuori da 12
Qualità dell'aria Non disponibile.
Flu Activity Non disponibile.
METAR KFWB 020555Z AUTO 00000KT 10SM SCT040 23/18 A3011 RMK AO2

10-Day Weather Forecast

×

Almanac

Astronomia

Sep. 02, 2015 Alba Tramonto
Ora attuale
Crepuscolo civile
Crepuscolo nautico
Crepuscolo astronomico
Luna
Estensione della luce visibile
Lunghezza del giorno
Tomorrow will be .
, % of the Moon is Illuminated

Gli estremi di oggi

State Highs State Lows

Community

WunderPhotos

Upload Photos

1,851,709 foto caricate!

WunderBlogs® & News

Nearby

Qualità dell'aria

  Qualità dell'aria Indice AQ Inquinante
Not available.

Profondità neve

Stazione Profondità Altitudine

Attività sismica

Città  Distanza Mag. Data & Ora
Minimo Magnitudo Mostrato è 2.5.

Temperature delle acque costiere

Località Temperatura

Stations

Stazioni meteo nelle vicinanze

Ubicazione della stazione Temp. Raffreddamento del vento Punto di rugiada Umidità Vento Precip. Alt. Aggiornato Tipo